createdAt,value
2018-06-08T00:02:22.240Z,18.88
2018-06-08T00:04:50.958Z,18.84
2018-06-08T00:07:19.741Z,18.79
2018-06-08T00:09:48.532Z,18.79
2018-06-08T00:12:17.328Z,18.76
2018-06-08T00:14:46.113Z,18.70
2018-06-08T00:17:14.866Z,18.68
2018-06-08T00:19:43.675Z,18.65
2018-06-08T00:22:12.438Z,18.62
2018-06-08T00:24:41.225Z,18.61
2018-06-08T00:27:09.955Z,18.59
2018-06-08T00:29:58.200Z,18.58
2018-06-08T00:32:27.439Z,18.56
2018-06-08T00:34:56.162Z,18.50
2018-06-08T00:37:24.889Z,18.50
2018-06-08T00:39:53.608Z,18.49
2018-06-08T00:42:22.343Z,18.49
2018-06-08T00:44:51.095Z,18.52
2018-06-08T00:47:19.838Z,18.48
2018-06-08T00:49:48.591Z,18.48
2018-06-08T00:52:17.348Z,18.47
2018-06-08T00:54:46.094Z,18.40
2018-06-08T00:57:14.859Z,18.43
2018-06-08T00:59:43.597Z,18.46
2018-06-08T01:02:12.352Z,18.47
2018-06-08T01:04:41.254Z,18.43
2018-06-08T01:07:10.019Z,18.45
2018-06-08T01:09:38.710Z,18.49
2018-06-08T01:12:07.587Z,18.44
2018-06-08T01:14:36.289Z,18.38
2018-06-08T01:17:05.056Z,18.35
2018-06-08T01:19:35.003Z,18.34
2018-06-08T01:22:03.914Z,18.32
2018-06-08T01:24:33.177Z,18.29
2018-06-08T01:27:01.899Z,18.27
2018-06-08T01:29:30.648Z,18.26
2018-06-08T01:31:59.346Z,18.30
2018-06-08T01:34:28.072Z,18.32
2018-06-08T01:36:56.901Z,18.30
2018-06-08T01:39:25.626Z,18.25
2018-06-08T01:41:54.349Z,18.25
2018-06-08T01:44:23.111Z,18.20
2018-06-08T01:46:51.841Z,18.18
2018-06-08T01:49:20.618Z,18.15
2018-06-08T01:51:49.352Z,18.12
2018-06-08T01:54:18.173Z,18.12
2018-06-08T01:56:47.235Z,18.12
2018-06-08T01:59:15.967Z,18.11
2018-06-08T02:01:44.729Z,18.10
2018-06-08T02:04:13.457Z,18.08
2018-06-08T02:06:42.220Z,18.03
2018-06-08T02:09:11.017Z,18.03
2018-06-08T02:11:39.772Z,18.04
2018-06-08T02:14:08.608Z,18.02
2018-06-08T02:16:37.349Z,17.97
2018-06-08T02:19:06.052Z,17.94
2018-06-08T02:21:34.817Z,17.93
2018-06-08T02:24:03.614Z,17.92
2018-06-08T02:26:32.423Z,17.87
2018-06-08T02:29:01.197Z,17.77
2018-06-08T02:31:30.399Z,17.73
2018-06-08T02:33:59.398Z,17.70
2018-06-08T02:36:28.292Z,17.68
2018-06-08T02:38:57.079Z,17.67
2018-06-08T02:41:25.810Z,17.67
2018-06-08T02:43:54.558Z,17.63
2018-06-08T02:46:23.326Z,17.54
2018-06-08T02:48:52.054Z,17.57
2018-06-08T02:51:20.776Z,17.58
2018-06-08T02:53:49.502Z,17.53
2018-06-08T02:56:18.271Z,17.50
2018-06-08T02:58:47.397Z,17.49
2018-06-08T03:01:16.155Z,17.55
2018-06-08T03:03:44.895Z,17.58
2018-06-08T03:06:13.630Z,17.56
2018-06-08T03:08:42.403Z,17.63
2018-06-08T03:11:11.183Z,17.65
2018-06-08T03:13:39.939Z,17.64
2018-06-08T03:16:08.673Z,17.69
2018-06-08T03:18:37.438Z,17.72
2018-06-08T03:21:06.407Z,17.73
2018-06-08T03:23:35.150Z,17.80
2018-06-08T03:26:03.946Z,17.85
2018-06-08T03:28:32.706Z,17.90
2018-06-08T03:31:01.449Z,17.85
2018-06-08T03:33:30.148Z,17.91
2018-06-08T03:35:59.939Z,17.97
2018-06-08T03:38:28.691Z,18.07
2018-06-08T03:40:57.398Z,18.02
2018-06-08T03:43:26.146Z,18.06
2018-06-08T03:45:54.917Z,17.98
2018-06-08T03:48:23.699Z,18.03
2018-06-08T03:50:52.447Z,18.21
2018-06-08T03:53:21.219Z,18.28
2018-06-08T03:55:50.337Z,18.37
2018-06-08T03:58:19.085Z,18.48
2018-06-08T04:00:47.805Z,18.59
2018-06-08T04:03:16.540Z,18.64
2018-06-08T04:05:45.288Z,18.68
2018-06-08T04:08:14.026Z,18.76
2018-06-08T04:10:43.876Z,18.84
2018-06-08T04:13:12.580Z,18.91
2018-06-08T04:15:41.563Z,18.98
2018-06-08T04:18:10.411Z,18.94
2018-06-08T04:20:39.179Z,18.95
2018-06-08T04:23:07.987Z,18.98
2018-06-08T04:25:36.800Z,19.11
2018-06-08T04:28:06.011Z,19.17
2018-06-08T04:30:34.798Z,19.26
2018-06-08T04:33:03.918Z,19.38
2018-06-08T04:35:32.818Z,19.49
2018-06-08T04:38:01.534Z,19.66
2018-06-08T04:40:30.346Z,19.75
2018-06-08T04:42:59.234Z,19.88
2018-06-08T04:45:27.990Z,20.10
2018-06-08T04:47:56.693Z,20.49
2018-06-08T04:50:25.442Z,21.24
2018-06-08T04:52:54.274Z,22.05
2018-06-08T04:55:23.022Z,22.72
2018-06-08T04:57:51.754Z,23.26
2018-06-08T05:00:20.563Z,23.89
2018-06-08T05:02:49.306Z,24.34
2018-06-08T05:05:18.060Z,24.69
2018-06-08T05:07:46.874Z,25.12
2018-06-08T05:10:15.960Z,25.35
2018-06-08T05:12:44.738Z,25.58
2018-06-08T05:15:13.470Z,25.54
2018-06-08T05:17:42.239Z,25.74
2018-06-08T05:20:10.977Z,26.08
2018-06-08T05:22:39.798Z,26.29
2018-06-08T05:25:08.495Z,26.53
2018-06-08T05:27:37.287Z,26.71
2018-06-08T05:30:19.253Z,26.79
2018-06-08T05:32:48.046Z,27.00
2018-06-08T05:35:16.851Z,27.27
2018-06-08T05:37:45.614Z,27.42
2018-06-08T05:40:14.449Z,27.42
2018-06-08T05:42:43.223Z,27.53
2018-06-08T05:45:12.016Z,27.44
2018-06-08T05:47:40.799Z,27.49
2018-06-08T05:50:09.586Z,27.42
2018-06-08T05:52:38.345Z,27.03
2018-06-08T05:55:07.096Z,26.96
2018-06-08T05:57:35.868Z,26.79
2018-06-08T06:00:08.014Z,26.70
2018-06-08T06:02:36.807Z,26.26
2018-06-08T06:05:07.414Z,25.76
2018-06-08T06:07:36.292Z,25.51
2018-06-08T06:10:06.075Z,25.32
2018-06-08T06:12:35.263Z,25.12
2018-06-08T06:15:04.184Z,25.04
2018-06-08T06:17:33.064Z,25.12
2018-06-08T06:20:01.833Z,25.01
2018-06-08T06:22:30.644Z,24.60
2018-06-08T06:24:59.412Z,24.28
2018-06-08T06:27:28.418Z,23.78
2018-06-08T06:29:57.178Z,23.75
2018-06-08T06:32:26.091Z,23.68
2018-06-08T06:34:55.124Z,23.76
2018-06-08T06:37:23.994Z,23.96
2018-06-08T06:39:53.818Z,24.00
2018-06-08T06:42:22.740Z,24.03
2018-06-08T06:44:51.733Z,24.03
2018-06-08T06:47:20.738Z,23.92
2018-06-08T06:49:49.607Z,23.84
2018-06-08T06:52:18.397Z,23.86
2018-06-08T06:55:03.340Z,23.88
2018-06-08T06:57:32.130Z,24.00
2018-06-08T07:00:00.941Z,23.73
2018-06-08T07:02:29.964Z,23.78
2018-06-08T07:04:58.914Z,23.92
2018-06-08T07:07:27.884Z,23.95
2018-06-08T07:09:56.761Z,24.01
2018-06-08T07:12:25.620Z,23.93
2018-06-08T07:14:54.449Z,24.10
2018-06-08T07:17:23.307Z,24.11
2018-06-08T07:19:52.176Z,24.09
2018-06-08T07:22:21.429Z,24.07
2018-06-08T07:24:50.380Z,24.03
2018-06-08T07:27:19.304Z,24.12
2018-06-08T07:29:48.140Z,23.93
2018-06-08T07:32:16.919Z,24.11
2018-06-08T07:34:45.971Z,24.23
2018-06-08T07:37:14.735Z,24.36
2018-06-08T07:39:43.595Z,24.51
2018-06-08T07:42:12.678Z,24.54
2018-06-08T07:44:41.430Z,24.56
2018-06-08T07:47:10.179Z,24.77
2018-06-08T07:49:38.962Z,24.91
2018-06-08T07:52:07.721Z,24.83
2018-06-08T07:54:36.593Z,24.80
2018-06-08T07:57:05.408Z,24.81
2018-06-08T07:59:34.188Z,24.96
2018-06-08T08:02:02.919Z,25.02
2018-06-08T08:04:31.694Z,25.09
2018-06-08T08:07:00.428Z,25.19
2018-06-08T08:09:29.167Z,25.29
2018-06-08T08:11:59.011Z,25.33
2018-06-08T08:14:28.110Z,25.20
2018-06-08T08:16:58.361Z,25.12
2018-06-08T08:19:27.179Z,25.21
2018-06-08T08:21:55.926Z,25.26
2018-06-08T08:24:24.722Z,25.26
2018-06-08T08:26:53.475Z,25.30
2018-06-08T08:29:22.232Z,25.37
2018-06-08T08:31:50.991Z,25.46
2018-06-08T08:34:49.415Z,25.27
2018-06-08T08:37:18.190Z,25.42
2018-06-08T08:39:46.949Z,25.43
2018-06-08T08:42:15.743Z,25.50
2018-06-08T08:44:44.523Z,25.63
2018-06-08T08:47:13.264Z,25.74
2018-06-08T08:49:41.976Z,25.61
2018-06-08T08:52:10.754Z,25.69
2018-06-08T08:54:39.483Z,25.67
2018-06-08T08:57:08.354Z,25.73
2018-06-08T08:59:37.223Z,25.75
2018-06-08T09:02:05.977Z,25.92
2018-06-08T09:04:34.759Z,26.12
2018-06-08T09:07:03.920Z,26.14
2018-06-08T09:09:32.688Z,26.14
2018-06-08T09:12:01.598Z,26.12
2018-06-08T09:14:33.572Z,26.03
2018-06-08T09:17:02.336Z,26.00
2018-06-08T09:19:31.048Z,26.17
2018-06-08T09:21:59.822Z,26.16
2018-06-08T09:24:28.756Z,26.08
2018-06-08T09:26:57.504Z,26.26
2018-06-08T09:29:26.210Z,26.38
2018-06-08T09:31:54.924Z,26.32
2018-06-08T09:34:23.654Z,26.37
2018-06-08T09:36:52.381Z,26.55
2018-06-08T09:39:21.204Z,26.73
2018-06-08T09:41:50.048Z,26.91
2018-06-08T09:44:18.848Z,27.00
2018-06-08T09:46:47.606Z,26.96
2018-06-08T09:49:16.408Z,27.09
2018-06-08T09:51:45.198Z,27.09
2018-06-08T09:54:14.007Z,27.05
2018-06-08T09:56:43.753Z,27.17
2018-06-08T09:59:12.498Z,27.20
2018-06-08T10:01:41.230Z,27.07
2018-06-08T10:04:10.053Z,27.20
2018-06-08T10:06:38.824Z,26.96
2018-06-08T10:09:08.454Z,26.99
2018-06-08T10:11:37.512Z,27.06
2018-06-08T10:14:06.334Z,27.05
2018-06-08T10:16:35.074Z,27.33
2018-06-08T10:19:04.253Z,27.57
2018-06-08T10:21:33.037Z,27.60
2018-06-08T10:24:01.830Z,27.54
2018-06-08T10:26:30.627Z,27.66
2018-06-08T10:28:59.353Z,27.70
2018-06-08T10:31:28.100Z,27.76
2018-06-08T10:33:56.901Z,27.95
2018-06-08T10:36:25.936Z,28.00
2018-06-08T10:38:54.696Z,28.03
2018-06-08T10:41:23.508Z,28.18
2018-06-08T10:43:52.270Z,28.31
2018-06-08T10:46:21.002Z,28.39
2018-06-08T10:48:49.921Z,28.37
2018-06-08T10:51:18.683Z,28.32
2018-06-08T10:53:47.497Z,28.35
2018-06-08T10:56:16.875Z,28.42
2018-06-08T10:58:45.622Z,28.41
2018-06-08T11:01:14.437Z,28.38
2018-06-08T11:03:43.263Z,28.41
2018-06-08T11:06:12.019Z,28.42
2018-06-08T11:08:40.838Z,28.42
2018-06-08T11:11:09.648Z,28.43
2018-06-08T11:13:38.431Z,28.51
2018-06-08T11:16:07.175Z,28.67
2018-06-08T11:18:35.958Z,28.76
2018-06-08T11:21:04.757Z,28.87
2018-06-08T11:23:33.539Z,28.91
2018-06-08T11:26:17.751Z,28.95
2018-06-08T11:28:46.723Z,29.17
2018-06-08T11:31:15.475Z,29.13
2018-06-08T11:33:44.185Z,29.15
2018-06-08T11:36:12.908Z,29.11
2018-06-08T11:38:41.751Z,29.11
2018-06-08T11:41:10.495Z,29.08
2018-06-08T11:43:39.774Z,29.15
2018-06-08T11:46:08.641Z,29.36
2018-06-08T11:48:37.430Z,29.40
2018-06-08T11:51:06.287Z,29.56
2018-06-08T11:53:35.068Z,29.60
2018-06-08T11:56:03.885Z,29.59
2018-06-08T11:58:32.648Z,29.42
2018-06-08T12:01:01.482Z,29.31
2018-06-08T12:03:30.291Z,29.31
2018-06-08T12:05:59.462Z,29.49
2018-06-08T12:08:28.252Z,29.46
2018-06-08T12:10:57.070Z,29.55
2018-06-08T12:13:25.950Z,29.82
2018-06-08T12:15:54.703Z,30.02
2018-06-08T12:18:23.490Z,29.87
2018-06-08T12:20:52.263Z,29.81
2018-06-08T12:23:21.090Z,29.87
2018-06-08T12:25:49.908Z,29.64
2018-06-08T12:28:18.722Z,29.64
2018-06-08T12:30:47.498Z,29.80
2018-06-08T12:33:16.408Z,29.76
2018-06-08T12:35:45.184Z,29.91
2018-06-08T12:38:14.230Z,29.95
2018-06-08T12:40:51.297Z,30.03
2018-06-08T12:43:21.110Z,29.99
2018-06-08T12:45:49.947Z,29.69
2018-06-08T12:48:18.656Z,29.29
2018-06-08T12:50:47.431Z,29.18
2018-06-08T12:53:16.162Z,29.11
2018-06-08T12:55:44.928Z,29.27
2018-06-08T12:58:13.894Z,29.44
2018-06-08T13:00:42.670Z,29.67
2018-06-08T13:03:20.225Z,29.56
2018-06-08T13:05:48.988Z,29.66
2018-06-08T13:08:17.852Z,29.79
2018-06-08T13:10:46.580Z,29.89
2018-06-08T13:13:15.346Z,29.80
2018-06-08T13:15:44.114Z,29.99
2018-06-08T13:18:13.020Z,30.02
2018-06-08T13:20:41.801Z,30.20
2018-06-08T13:23:10.608Z,30.15
2018-06-08T13:25:39.367Z,30.00
2018-06-08T13:28:08.069Z,29.79
2018-06-08T13:30:36.871Z,29.68
2018-06-08T13:33:05.610Z,29.83
2018-06-08T13:35:34.381Z,30.01
2018-06-08T13:38:03.091Z,30.19
2018-06-08T13:40:31.801Z,30.18
2018-06-08T13:43:00.780Z,29.99
2018-06-08T13:45:29.562Z,30.13
2018-06-08T13:47:58.290Z,29.99
2018-06-08T13:50:27.425Z,29.73
2018-06-08T13:52:56.214Z,29.54
2018-06-08T13:55:24.967Z,29.26
2018-06-08T13:57:53.702Z,29.19
2018-06-08T14:00:22.643Z,29.15
2018-06-08T14:02:51.465Z,29.04
2018-06-08T14:05:20.247Z,29.16
2018-06-08T14:07:48.960Z,29.14
2018-06-08T14:10:18.082Z,29.00
2018-06-08T14:12:46.923Z,28.95
2018-06-08T14:15:15.723Z,29.03
2018-06-08T14:17:44.639Z,28.95
2018-06-08T14:20:13.329Z,29.05
2018-06-08T14:22:42.046Z,29.18
2018-06-08T14:25:11.162Z,29.14
2018-06-08T14:27:39.941Z,28.93
2018-06-08T14:30:08.918Z,28.81
2018-06-08T14:32:37.709Z,28.80
2018-06-08T14:35:06.494Z,28.91
2018-06-08T14:37:35.310Z,29.03
2018-06-08T14:40:04.106Z,29.10
2018-06-08T14:42:32.879Z,29.19
2018-06-08T14:45:01.983Z,29.35
2018-06-08T14:47:30.721Z,29.39
2018-06-08T14:49:59.460Z,29.40
2018-06-08T14:52:28.237Z,29.35
2018-06-08T14:54:56.965Z,29.28
2018-06-08T14:57:26.884Z,29.19
2018-06-08T14:59:55.727Z,29.33
2018-06-08T15:02:24.661Z,29.28
2018-06-08T15:04:53.403Z,29.13
2018-06-08T15:07:22.181Z,29.07
2018-06-08T15:09:50.911Z,28.92
2018-06-08T15:12:19.665Z,28.94
2018-06-08T15:14:48.362Z,29.07
2018-06-08T15:17:17.133Z,28.89
2018-06-08T15:19:45.866Z,28.67
2018-06-08T15:22:14.626Z,28.79
2018-06-08T15:24:43.387Z,28.78
2018-06-08T15:27:12.165Z,28.74
2018-06-08T15:29:40.950Z,28.79
2018-06-08T15:32:09.700Z,28.65
2018-06-08T15:34:38.485Z,28.61
2018-06-08T15:37:07.368Z,28.68
2018-06-08T15:39:36.119Z,28.78
2018-06-08T15:42:04.871Z,28.90
2018-06-08T15:44:34.524Z,28.97
2018-06-08T15:47:03.336Z,28.72
2018-06-08T15:49:33.094Z,28.73
2018-06-08T15:52:01.946Z,28.53
2018-06-08T15:54:30.951Z,28.38
2018-06-08T15:57:00.021Z,28.36
2018-06-08T15:59:28.785Z,28.23
2018-06-08T16:02:23.384Z,28.04
2018-06-08T16:04:52.236Z,27.93
2018-06-08T16:07:22.685Z,27.86
2018-06-08T16:09:51.444Z,27.75
2018-06-08T16:12:21.251Z,27.77
2018-06-08T16:14:50.049Z,27.69
2018-06-08T16:17:19.899Z,27.70
2018-06-08T16:19:48.702Z,27.63
2018-06-08T16:22:17.458Z,27.62
2018-06-08T16:24:46.256Z,27.51
2018-06-08T16:27:15.364Z,27.44
2018-06-08T16:29:45.080Z,27.34
2018-06-08T16:32:13.794Z,27.23
2018-06-08T16:34:42.542Z,27.17
2018-06-08T16:37:11.349Z,26.96
2018-06-08T16:39:40.080Z,26.93
2018-06-08T16:42:08.818Z,26.93
2018-06-08T16:44:37.538Z,26.92
2018-06-08T16:47:06.365Z,26.94
2018-06-08T16:49:35.197Z,26.89
2018-06-08T16:52:04.038Z,26.85
2018-06-08T16:54:32.811Z,26.84
2018-06-08T16:57:01.599Z,26.73
2018-06-08T16:59:30.378Z,26.75
2018-06-08T17:01:59.136Z,26.62
2018-06-08T17:04:27.885Z,26.63
2018-06-08T17:06:56.741Z,26.57
2018-06-08T17:09:25.608Z,26.56
2018-06-08T17:11:58.325Z,26.64
2018-06-08T17:14:27.142Z,26.73
2018-06-08T17:16:56.050Z,26.68
2018-06-08T17:19:24.895Z,26.71
2018-06-08T17:21:56.013Z,26.66
2018-06-08T17:24:25.192Z,26.55
2018-06-08T17:26:53.911Z,26.47
2018-06-08T17:29:23.315Z,26.42
2018-06-08T17:31:52.068Z,26.26
2018-06-08T17:34:27.146Z,26.18
2018-06-08T17:36:55.922Z,26.04
2018-06-08T17:39:24.683Z,25.95
2018-06-08T17:41:53.526Z,25.84
2018-06-08T17:44:22.927Z,25.71
2018-06-08T17:46:51.649Z,25.63
2018-06-08T17:49:20.364Z,25.59
2018-06-08T17:51:49.047Z,25.49
2018-06-08T17:54:17.825Z,25.45
2018-06-08T17:56:46.542Z,25.37
2018-06-08T17:59:15.376Z,25.31
2018-06-08T18:01:44.135Z,25.28
2018-06-08T18:04:12.866Z,25.24
2018-06-08T18:06:41.607Z,25.21
2018-06-08T18:09:10.402Z,25.14
2018-06-08T18:11:39.648Z,25.11
2018-06-08T18:14:08.439Z,25.09
2018-06-08T18:16:37.186Z,24.99
2018-06-08T18:19:06.069Z,24.96
2018-06-08T18:21:34.937Z,24.90
2018-06-08T18:24:03.731Z,24.92
2018-06-08T18:26:32.489Z,24.89
2018-06-08T18:29:01.207Z,24.81
2018-06-08T18:31:30.001Z,24.81
2018-06-08T18:33:58.811Z,24.82
2018-06-08T18:36:27.572Z,24.78
2018-06-08T18:38:56.566Z,24.74
2018-06-08T18:41:25.360Z,24.72
2018-06-08T18:43:54.689Z,24.75
2018-06-08T18:46:23.429Z,24.72
2018-06-08T18:48:53.180Z,24.70
2018-06-08T18:51:22.051Z,24.70
2018-06-08T18:53:52.583Z,24.69
2018-06-08T18:56:21.316Z,24.66
2018-06-08T18:58:50.090Z,24.60
2018-06-08T19:01:18.897Z,24.64
2018-06-08T19:03:47.787Z,24.58
2018-06-08T19:06:16.607Z,24.53
2018-06-08T19:08:45.385Z,24.50
2018-06-08T19:11:14.108Z,24.46
2018-06-08T19:13:42.873Z,24.42
2018-06-08T19:16:11.638Z,24.38
2018-06-08T19:18:40.378Z,24.40
2018-06-08T19:21:09.214Z,24.43
2018-06-08T19:23:37.966Z,24.39
2018-06-08T19:26:06.782Z,24.38
2018-06-08T19:28:35.493Z,24.38
2018-06-08T19:31:04.256Z,24.37
2018-06-08T19:33:32.971Z,24.33
2018-06-08T19:36:01.667Z,24.35
2018-06-08T19:38:30.458Z,24.31
2018-06-08T19:40:59.487Z,24.31
2018-06-08T19:43:28.256Z,24.26
2018-06-08T19:45:56.982Z,24.26
2018-06-08T19:48:25.727Z,24.24
2018-06-08T19:50:54.475Z,24.23
2018-06-08T19:53:23.329Z,24.18
2018-06-08T19:55:52.038Z,24.18
2018-06-08T19:58:20.795Z,24.20
2018-06-08T20:00:49.657Z,24.15
2018-06-08T20:03:18.449Z,24.16
2018-06-08T20:05:47.237Z,24.17
2018-06-08T20:08:15.985Z,24.19
2018-06-08T20:10:46.503Z,24.15
2018-06-08T20:13:15.345Z,24.13
2018-06-08T20:15:44.195Z,24.10
2018-06-08T20:18:12.951Z,24.03
2018-06-08T20:20:41.706Z,23.97
2018-06-08T20:23:10.544Z,23.99
2018-06-08T20:25:39.380Z,23.91
2018-06-08T20:28:08.087Z,23.88
2018-06-08T20:30:36.901Z,23.89
2018-06-08T20:33:05.776Z,23.85
2018-06-08T20:35:34.536Z,23.83
2018-06-08T20:38:04.684Z,23.80
2018-06-08T20:40:33.543Z,23.81
2018-06-08T20:43:02.540Z,23.81
2018-06-08T20:45:31.290Z,23.76
2018-06-08T20:48:00.080Z,23.79
2018-06-08T20:50:28.856Z,23.78
2018-06-08T20:52:57.618Z,23.75
2018-06-08T20:55:26.342Z,23.70
2018-06-08T20:58:01.177Z,23.63
2018-06-08T21:00:29.961Z,23.59
2018-06-08T21:02:58.711Z,23.55
2018-06-08T21:05:27.417Z,23.49
2018-06-08T21:07:56.183Z,23.39
2018-06-08T21:10:25.818Z,23.38
2018-06-08T21:12:54.562Z,23.35
2018-06-08T21:15:23.315Z,23.32
2018-06-08T21:17:52.033Z,23.31
2018-06-08T21:20:20.753Z,23.32
2018-06-08T21:22:49.534Z,23.27
2018-06-08T21:25:18.505Z,23.22
2018-06-08T21:27:47.229Z,23.21
2018-06-08T21:30:15.990Z,23.21
2018-06-08T21:32:44.794Z,23.16
2018-06-08T21:35:13.551Z,23.14
2018-06-08T21:37:42.369Z,23.12
2018-06-08T21:40:11.341Z,23.11
2018-06-08T21:42:40.150Z,23.07
2018-06-08T21:45:08.945Z,23.08
2018-06-08T21:47:37.649Z,23.12
2018-06-08T21:50:07.134Z,23.15
2018-06-08T21:52:36.086Z,23.09
2018-06-08T21:55:04.870Z,23.06
2018-06-08T21:57:33.665Z,23.05
2018-06-08T22:00:04.202Z,23.03
2018-06-08T22:02:32.979Z,22.97
2018-06-08T22:05:01.764Z,22.96
2018-06-08T22:07:30.556Z,22.96
2018-06-08T22:09:59.824Z,22.97
2018-06-08T22:12:28.638Z,22.98
2018-06-08T22:14:57.388Z,22.98
2018-06-08T22:17:26.138Z,22.99
2018-06-08T22:19:54.962Z,22.95
2018-06-08T22:22:23.807Z,22.96
2018-06-08T22:24:52.608Z,22.97
2018-06-08T22:27:21.552Z,22.92
2018-06-08T22:29:50.356Z,22.86
2018-06-08T22:32:19.233Z,22.82
2018-06-08T22:34:48.003Z,22.76
2018-06-08T22:37:16.816Z,22.75
2018-06-08T22:39:45.593Z,22.76
2018-06-08T22:42:14.349Z,22.74
2018-06-08T22:44:43.153Z,22.75
2018-06-08T22:47:11.950Z,22.77
2018-06-08T22:49:40.712Z,22.77
2018-06-08T22:52:09.451Z,22.69
2018-06-08T22:54:38.201Z,22.69
2018-06-08T22:57:06.965Z,22.74
2018-06-08T22:59:35.734Z,22.74
2018-06-08T23:02:04.575Z,22.70
2018-06-08T23:04:33.310Z,22.67
2018-06-08T23:07:03.720Z,22.68
2018-06-08T23:09:32.423Z,22.58
2018-06-08T23:12:01.184Z,22.53
2018-06-08T23:14:29.893Z,22.45
2018-06-08T23:16:58.695Z,22.41
2018-06-08T23:19:27.626Z,22.39
2018-06-08T23:21:56.345Z,22.39
2018-06-08T23:24:25.123Z,22.36
2018-06-08T23:26:53.829Z,22.36
2018-06-08T23:29:22.611Z,22.42
2018-06-08T23:31:51.338Z,22.40
2018-06-08T23:34:20.125Z,22.41
2018-06-08T23:36:48.906Z,22.42
2018-06-08T23:39:17.645Z,22.45
2018-06-08T23:41:46.420Z,22.50
2018-06-08T23:44:15.137Z,22.54
2018-06-08T23:46:43.862Z,22.58
2018-06-08T23:49:12.589Z,22.59
2018-06-08T23:51:41.289Z,22.57
2018-06-08T23:54:10.035Z,22.55
2018-06-08T23:56:38.781Z,22.52
2018-06-08T23:59:07.539Z,22.52
